Orbital elements of COSMOS 1275 DEB
| Launched | 3 June 1981 |
| Flight ended | – |
| Launch site | Plesetsk Missile and Space Complex, Russia |
| Owner | Commonwealth of Independent States (former USSR) |
| NORAD ID | 42128 |
| Date fetched |
Epoch osculation |
Inc. [°] |
Ecc. | RA asc node [hr] |
Arg Peri. [°] |
Mean anom [°] |
Mean motion [rev/day] |
Abs. mag |
| Date fetched |
Epoch osculation |
Inc. [°] |
Ecc. | RA asc node [hr] |
Arg Peri. [°] |
Mean anom [°] |
Mean motion [rev/day] |
Abs. mag |
| 2026 May 08 17:57 | 2026 May 04 03:51:59 | 82.9304 | 0.00267 | 0.7960 | 51.2632 | 102.2866 | 13.97086 | – |
| 2026 May 07 17:58 | 2026 May 04 03:51:59 | 82.9304 | 0.00267 | 0.7960 | 51.2632 | 102.2866 | 13.97086 | – |
| 2026 May 06 17:57 | 2026 May 04 03:51:59 | 82.9304 | 0.00267 | 0.7960 | 51.2632 | 102.2866 | 13.97086 | – |
| 2026 May 05 17:57 | 2026 May 04 03:51:59 | 82.9304 | 0.00267 | 0.7960 | 51.2632 | 102.2866 | 13.97086 | – |
| 2026 May 04 17:57 | 2026 Apr 30 03:36:16 | 82.9311 | 0.00267 | 1.0020 | 61.8892 | 102.2866 | 13.97086 | – |
| 2026 May 03 17:57 | 2026 Apr 30 03:36:16 | 82.9311 | 0.00267 | 1.0020 | 61.8892 | 102.2866 | 13.97086 | – |
| 2026 May 02 17:57 | 2026 Apr 30 03:36:16 | 82.9311 | 0.00267 | 1.0020 | 61.8892 | 102.2866 | 13.97086 | – |
| 2026 May 01 17:56 | 2026 Apr 30 03:36:16 | 82.9311 | 0.00267 | 1.0020 | 61.8892 | 102.2866 | 13.97086 | – |
| 2026 Apr 30 17:56 | 2026 Apr 30 03:36:16 | 82.9311 | 0.00267 | 1.0020 | 61.8892 | 102.2866 | 13.97086 | – |
| 2026 Apr 29 17:57 | 2026 Apr 24 04:56:46 | 82.9309 | 0.00266 | 1.3071 | 77.7453 | 102.2866 | 13.97086 | – |
| 2026 Apr 28 17:56 | 2026 Apr 24 04:56:46 | 82.9309 | 0.00266 | 1.3071 | 77.7453 | 102.2866 | 13.97086 | – |
| 2026 Apr 27 17:58 | 2026 Apr 24 04:56:46 | 82.9309 | 0.00266 | 1.3071 | 77.7453 | 102.2866 | 13.97086 | – |
| 2026 Apr 26 17:58 | 2026 Apr 24 04:56:46 | 82.9309 | 0.00266 | 1.3071 | 77.7453 | 102.2866 | 13.97086 | – |
| 2026 Apr 25 17:58 | 2026 Apr 24 04:56:46 | 82.9309 | 0.00266 | 1.3071 | 77.7453 | 102.2866 | 13.97086 | – |
| 2026 Apr 24 17:59 | 2026 Apr 24 04:56:46 | 82.9309 | 0.00266 | 1.3071 | 77.7453 | 102.2866 | 13.97086 | – |
| 2026 Apr 23 17:57 | 2026 Apr 17 17:39:11 | 82.9311 | 0.00263 | 1.6393 | 95.2580 | 102.2866 | 13.97086 | – |
| 2026 Apr 22 17:57 | 2026 Apr 17 17:39:11 | 82.9311 | 0.00263 | 1.6393 | 95.2580 | 102.2866 | 13.97086 | – |
| 2026 Apr 21 17:57 | 2026 Apr 17 17:39:11 | 82.9311 | 0.00263 | 1.6393 | 95.2580 | 102.2866 | 13.97086 | – |
| 2026 Apr 20 17:57 | 2026 Apr 17 17:39:11 | 82.9311 | 0.00263 | 1.6393 | 95.2580 | 102.2866 | 13.97086 | – |
| 2026 Apr 19 17:58 | 2026 Apr 17 17:39:11 | 82.9311 | 0.00263 | 1.6393 | 95.2580 | 102.2866 | 13.97086 | – |
| 2026 Apr 18 17:56 | 2026 Apr 12 12:53:06 | 82.9308 | 0.00259 | 1.9062 | 109.5950 | 102.2866 | 13.97086 | – |
| 2026 Apr 16 17:57 | 2026 Apr 12 12:53:06 | 82.9308 | 0.00259 | 1.9062 | 109.5950 | 102.2866 | 13.97086 | – |
| 2026 Apr 14 17:57 | 2026 Apr 12 12:53:06 | 82.9308 | 0.00259 | 1.9062 | 109.5950 | 102.2866 | 13.97086 | – |
| 2026 Apr 13 17:57 | 2026 Apr 12 12:53:06 | 82.9308 | 0.00259 | 1.9062 | 109.5950 | 102.2866 | 13.97086 | – |
| 2026 Apr 12 17:57 | 2026 Apr 07 18:43:33 | 82.9306 | 0.00256 | 2.1504 | 122.7311 | 102.2866 | 13.97086 | – |
| 2026 Apr 11 17:57 | 2026 Apr 07 18:43:33 | 82.9306 | 0.00256 | 2.1504 | 122.7311 | 102.2866 | 13.97086 | – |